Graham, Georgia
Current Conditions -  °F | °C
As of 10:35 PM on Saturday 22 Nov 2014 (Local Time) from KBHC Reporting Station
Overcast Overcast  
Wind Chill: 59°   Ceiling: 6000
Heat Index: 59°   Visibility: 10mi
Dew Point: 57°   Wind: 9mph
Humidity: 94%   Direction: 80°E
Pressure: 30.2"   Gusts: NA
Location:  31.7834°N, 82.3304°W
Report Text: KBHC 230335Z AUTO 08008KT 10SM SCT007 OVC060 15/14 A3020 RMK AO2
Loading
Personal Weather Stations






























Interactive Weather Map New forecast layout! Learn more

10-Day Weather Forecast

Advertisements
Track Severe Weather on mobile